Time;durP1;ratioP1;P1;durP2;ratioP2;P2;SDS_P1;SDS_P2;PMS_P1;PMS_P2;Temp;Humidity;BMP_temperature;BMP_pressure;BME280_temperature;BME280_humidity;BME280_pressure;Samples;Min_cycle;Max_cycle;Signal;HPM_P1;HPM_P2
2022/01/14 00:01:36;;;;;;;51.72;34.25;;;;;;;-5.11;100.00;97575.19;5040722;28;20025;-60
2022/01/14 00:04:02;;;;;;;59.78;34.67;;;;;;;-5.18;100.00;97572.63;5042160;28;20059;-61
2022/01/14 00:06:27;;;;;;;53.03;32.83;;;;;;;-5.19;100.00;97576.03;5048423;28;20029;-61
2022/01/14 00:09:01;;;;;;;58.83;35.05;;;;;;;-5.16;100.00;97571.75;5044115;28;20052;-61
2022/01/14 00:11:29;;;;;;;59.33;34.97;;;;;;;-5.13;100.00;97577.72;5045843;28;20407;-61
2022/01/14 00:14:07;;;;;;;69.03;37.45;;;;;;;-5.20;100.00;97570.88;5046956;28;20477;-61
2022/01/14 00:16:33;;;;;;;62.38;36.92;;;;;;;-5.23;100.00;97573.47;5047898;28;20045;-61
2022/01/14 00:18:59;;;;;;;59.45;34.38;;;;;;;-5.26;100.00;97578.59;5044412;28;20026;-61
2022/01/14 00:21:26;;;;;;;48.58;33.30;;;;;;;-5.30;100.00;97572.59;5046869;28;20485;-61
2022/01/14 00:23:54;;;;;;;51.90;34.55;;;;;;;-5.29;100.00;97576.88;5043256;28;20071;-61
2022/01/14 00:31:56;;;;;;;44.03;30.48;;;;;;;-5.32;100.00;97559.72;5045679;28;20106;-61
2022/01/14 00:34:22;;;;;;;78.90;37.47;;;;;;;-5.33;100.00;97565.72;5040947;28;20489;-61
2022/01/14 00:36:47;;;;;;;78.88;34.75;;;;;;;-5.30;100.00;97561.47;5044407;28;20295;-61
2022/01/14 00:39:14;;;;;;;51.42;30.02;;;;;;;-5.33;100.00;97563.16;5043381;28;20060;-61
2022/01/14 00:41:41;;;;;;;53.97;28.40;;;;;;;-5.32;100.00;97564.03;5045054;28;20022;-61
2022/01/14 00:44:11;;;;;;;61.70;30.30;;;;;;;-5.32;100.00;97569.16;5045924;28;20432;-60
2022/01/14 00:46:38;;;;;;;67.68;31.45;;;;;;;-5.33;100.00;97557.19;5047223;28;20032;-61
2022/01/14 00:49:04;;;;;;;107.65;40.67;;;;;;;-5.31;100.00;97568.31;5021990;28;20436;-61
2022/01/14 00:51:29;;;;;;;89.72;36.42;;;;;;;-5.33;100.00;97563.16;5039920;28;20037;-61
2022/01/14 00:53:55;;;;;;;59.22;31.50;;;;;;;-5.38;100.00;97558.91;5040862;28;20025;-61
2022/01/14 01:01:34;;;;;;;49.15;28.23;;;;;;;-5.42;100.00;97570.00;5038988;28;20036;-60
2022/01/14 01:03:59;;;;;;;45.63;26.10;;;;;;;-5.39;100.00;97567.47;5046255;28;20112;-62
2022/01/14 01:06:25;;;;;;;43.72;26.23;;;;;;;-5.38;100.00;97564.88;5047206;28;20024;-59
2022/01/14 01:08:52;;;;;;;48.83;27.80;;;;;;;-5.36;100.00;97568.28;5050926;28;20037;-60
2022/01/14 01:11:24;;;;;;;53.75;28.17;;;;;;;-5.37;100.00;97579.41;5043775;28;20459;-60
2022/01/14 01:14:00;;;;;;;50.72;26.90;;;;;;;-5.39;100.00;97581.13;5043666;28;20484;-60
2022/01/14 01:16:25;;;;;;;44.97;27.38;;;;;;;-5.44;100.00;97581.97;5049672;28;20086;-59
2022/01/14 01:18:50;;;;;;;76.30;33.03;;;;;;;-5.49;100.00;97587.97;5041854;28;20025;-60
2022/01/14 01:21:16;;;;;;;68.93;32.83;;;;;;;-5.50;100.00;97586.25;5042722;28;20561;-60
2022/01/14 01:23:41;;;;;;;78.22;35.30;;;;;;;-5.53;100.00;97586.25;5025941;28;20021;-60
2022/01/14 01:26:15;;;;;;;71.78;32.60;;;;;;;-5.56;100.00;97583.69;5044040;28;20391;-59
2022/01/14 01:28:56;;;;;;;75.65;32.65;;;;;;;-5.58;100.00;97587.09;5042542;28;20021;-60
2022/01/14 01:31:55;;;;;;;54.22;29.75;;;;;;;-5.54;100.00;97588.78;5046739;28;20404;-60
2022/01/14 01:34:22;;;;;;;57.40;27.85;;;;;;;-5.56;100.00;97587.94;5037118;28;20501;-60
2022/01/14 01:36:52;;;;;;;47.45;25.23;;;;;;;-5.62;100.00;97586.25;5044036;28;20021;-59
2022/01/14 01:39:21;;;;;;;57.55;26.88;;;;;;;-5.60;100.00;97579.41;5045709;28;20044;-60
2022/01/14 01:41:50;;;;;;;46.10;24.00;;;;;;;-5.55;100.00;97587.09;5046167;28;20050;-60
2022/01/14 01:44:18;;;;;;;37.03;21.77;;;;;;;-5.53;100.00;97586.25;5044587;28;20044;-59
2022/01/14 01:46:46;;;;;;;40.83;21.80;;;;;;;-5.57;100.00;97589.66;5042942;28;20033;-61
2022/01/14 01:49:12;;;;;;;40.92;21.42;;;;;;;-5.56;100.00;97588.81;5031625;28;20033;-60
2022/01/14 01:51:38;;;;;;;42.33;25.00;;;;;;;-5.51;100.00;97584.53;5042954;28;20039;-60
2022/01/14 01:54:04;;;;;;;38.45;23.77;;;;;;;-5.49;100.00;97584.56;5053191;28;20021;-60
2022/01/14 01:56:30;;;;;;;46.38;25.90;;;;;;;-5.53;100.00;97581.13;5046680;28;20143;-60
2022/01/14 01:58:58;;;;;;;43.15;24.92;;;;;;;-5.57;100.00;97584.53;5046374;28;20037;-60
2022/01/14 02:01:25;;;;;;;40.70;24.73;;;;;;;-5.58;100.00;97581.94;5045828;28;20025;-60
2022/01/14 02:03:54;;;;;;;35.05;23.13;;;;;;;-5.61;100.00;97583.66;5047327;28;20113;-60
2022/01/14 02:06:20;;;;;;;34.92;24.00;;;;;;;-5.62;100.00;97575.97;5043843;28;20065;-60
2022/01/14 02:08:46;;;;;;;39.88;24.55;;;;;;;-5.66;100.00;97584.50;5046991;28;20021;-60
2022/01/14 02:11:11;;;;;;;36.50;23.88;;;;;;;-5.72;100.00;97579.34;5050506;28;20036;-60
2022/01/14 02:13:36;;;;;;;39.50;23.77;;;;;;;-5.70;100.00;97582.78;5044372;28;20050;-60
2022/01/14 02:19:42;;;;;;;35.03;23.25;;;;;;;-5.75;100.00;97586.19;5041979;28;20041;-60
2022/01/14 02:26:51;;;;;;;32.03;19.63;;;;;;;-5.72;100.00;97579.34;5041970;28;20030;-60
2022/01/14 02:29:18;;;;;;;31.15;19.77;;;;;;;-5.70;100.00;97577.66;5043199;28;20025;-60
2022/01/14 02:31:44;;;;;;;28.10;19.25;;;;;;;-5.65;100.00;97581.06;5050279;28;20035;-60
2022/01/14 02:34:11;;;;;;;22.42;17.42;;;;;;;-5.68;100.00;97576.81;5046438;28;20451;-60
2022/01/14 02:36:42;;;;;;;26.63;18.17;;;;;;;-5.71;100.00;97586.19;5046829;28;20029;-60
2022/01/14 02:39:10;;;;;;;25.35;17.83;;;;;;;-5.74;100.00;97571.66;5043850;28;20024;-60
2022/01/14 02:41:37;;;;;;;24.63;18.08;;;;;;;-5.73;100.00;97562.25;5047780;28;20090;-60
2022/01/14 02:44:09;;;;;;;21.77;18.20;;;;;;;-5.71;100.00;97565.66;5044446;28;20013;-60
2022/01/14 02:46:40;;;;;;;28.20;20.17;;;;;;;-5.73;100.00;97572.50;5045296;28;20159;-60
2022/01/14 02:49:06;;;;;;;27.80;19.80;;;;;;;-5.76;100.00;97570.78;5039828;28;20021;-60
2022/01/14 02:51:32;;;;;;;31.38;20.45;;;;;;;-5.76;100.00;97566.53;5045329;28;20051;-60
2022/01/14 02:54:11;;;;;;;25.73;19.33;;;;;;;-5.75;100.00;97567.34;5049840;28;20103;-60
2022/01/14 02:56:38;;;;;;;24.30;18.38;;;;;;;-5.72;100.00;97569.97;5046013;28;20495;-60
2022/01/14 02:59:06;;;;;;;23.23;18.55;;;;;;;-5.72;100.00;97558.81;5050227;28;20111;-60
2022/01/14 03:01:33;;;;;;;25.45;17.00;;;;;;;-5.76;100.00;97566.53;5046684;28;20021;-61
2022/01/14 03:04:01;;;;;;;21.77;17.42;;;;;;;-5.80;100.00;97569.94;5046911;28;20028;-60
2022/01/14 03:06:27;;;;;;;21.85;16.48;;;;;;;-5.78;100.00;97559.66;5042164;28;20438;-60
2022/01/14 03:08:52;;;;;;;22.98;16.00;;;;;;;-5.73;100.00;97554.53;5047214;28;20021;-60
2022/01/14 03:11:26;;;;;;;24.20;15.82;;;;;;;-5.75;100.00;97555.41;5044367;28;20024;-60
2022/01/14 03:13:51;;;;;;;25.83;17.65;;;;;;;-5.72;100.00;97551.13;5042812;28;20080;-60
2022/01/14 03:16:21;;;;;;;27.80;18.38;;;;;;;-5.69;100.00;97543.44;5051349;28;20041;-60
2022/01/14 03:18:50;;;;;;;23.38;18.00;;;;;;;-5.70;100.00;97554.53;5039429;28;20166;-61
2022/01/14 03:21:24;;;;;;;26.55;19.58;;;;;;;-5.73;100.00;97549.41;5037298;28;20033;-60
2022/01/14 03:24:02;;;;;;;39.65;25.42;;;;;;;-5.77;100.00;97545.97;5049298;28;20134;-60
2022/01/14 03:26:27;;;;;;;48.90;29.55;;;;;;;-5.80;100.00;97536.56;5041728;28;20032;-60
2022/01/14 03:28:52;;;;;;;44.28;25.05;;;;;;;-5.84;100.00;97532.31;5044679;28;20025;-60
2022/01/14 03:31:18;;;;;;;40.20;25.77;;;;;;;-5.89;100.00;97544.22;5042841;28;20025;-60
2022/01/14 03:33:43;;;;;;;41.45;24.90;;;;;;;-5.88;100.00;97538.25;5045142;28;20108;-60
2022/01/14 03:36:09;;;;;;;28.52;19.83;;;;;;;-5.89;100.00;97531.41;5049115;28;20017;-60
2022/01/14 03:38:35;;;;;;;30.38;22.15;;;;;;;-5.91;100.00;97527.97;5041867;28;20056;-60
2022/01/14 03:41:02;;;;;;;28.30;19.23;;;;;;;-5.91;100.00;97525.41;5045069;28;20109;-61
2022/01/14 03:43:27;;;;;;;27.40;16.00;;;;;;;-5.88;100.00;97527.16;5041224;28;20156;-60
2022/01/14 03:45:52;;;;;;;24.13;16.00;;;;;;;-5.86;100.00;97525.44;5042562;28;20493;-60
2022/01/14 03:48:18;;;;;;;22.17;16.50;;;;;;;-5.79;100.00;97533.16;5043037;28;20108;-60
2022/01/14 03:50:44;;;;;;;19.80;14.85;;;;;;;-5.78;100.00;97534.00;5039387;28;20072;-60
2022/01/14 03:53:11;;;;;;;22.73;15.25;;;;;;;-5.83;100.00;97531.44;5043534;28;20073;-60
2022/01/14 03:55:42;;;;;;;18.27;14.05;;;;;;;-5.92;100.00;97524.56;5044754;28;20539;-60
2022/01/14 03:58:08;;;;;;;17.80;13.90;;;;;;;-5.96;100.00;97515.16;5046062;28;20048;-60
2022/01/14 04:00:34;;;;;;;13.68;12.27;;;;;;;-5.95;100.00;97514.31;5038860;28;20044;-61
2022/01/14 04:02:59;;;;;;;17.58;12.38;;;;;;;-5.92;100.00;97511.75;5032280;28;20108;-60
2022/01/14 04:05:25;;;;;;;16.95;13.48;;;;;;;-5.92;100.00;97505.75;5045310;28;20037;-60
2022/01/14 04:07:51;;;;;;;15.13;12.35;;;;;;;-5.95;100.00;97508.31;5045521;28;20044;-60
2022/01/14 04:10:18;;;;;;;14.38;13.00;;;;;;;-5.99;100.00;97499.75;5041143;28;20033;-60
2022/01/14 04:12:48;;;;;;;16.45;14.13;;;;;;;-5.96;100.00;97499.78;5044233;28;20079;-60
2022/01/14 04:18:00;;;;;;;18.55;14.02;;;;;;;-5.94;100.00;97497.19;5041530;28;20152;-60
2022/01/14 04:20:26;;;;;;;15.05;13.35;;;;;;;-5.95;100.00;97492.91;5040252;28;20481;-61
2022/01/14 04:22:51;;;;;;;16.80;14.20;;;;;;;-5.92;100.00;97498.94;5041409;28;20443;-60
2022/01/14 04:25:17;;;;;;;16.30;13.52;;;;;;;-5.91;100.00;97490.38;5048329;28;20076;-60
2022/01/14 04:27:43;;;;;;;18.77;14.70;;;;;;;-5.91;100.00;97495.50;5044491;28;20032;-61
2022/01/14 04:30:10;;;;;;;17.70;15.02;;;;;;;-5.90;100.00;97488.66;5041618;28;20132;-61
2022/01/14 04:32:35;;;;;;;17.90;15.60;;;;;;;-5.94;100.00;97487.81;5042299;28;20415;-61
2022/01/14 04:35:00;;;;;;;16.00;14.27;;;;;;;-5.99;100.00;97491.22;5039905;28;20104;-60
2022/01/14 04:37:26;;;;;;;19.27;14.40;;;;;;;-6.02;100.00;97488.66;5035661;28;20033;-60
2022/01/14 04:39:52;;;;;;;18.40;13.40;;;;;;;-6.06;100.00;97492.94;5048689;28;20476;-60
2022/01/14 04:42:17;;;;;;;16.75;14.43;;;;;;;-6.08;100.00;97492.94;5044724;28;20484;-60
2022/01/14 04:44:43;;;;;;;17.98;14.05;;;;;;;-6.09;100.00;97487.78;5043030;28;20029;-60
2022/01/14 04:47:30;;;;;;;15.80;12.85;;;;;;;-6.11;100.00;97490.34;5044177;28;20476;-60
2022/01/14 04:49:55;;;;;;;17.02;14.15;;;;;;;-6.09;100.00;97488.63;5045050;28;20044;-60
2022/01/14 04:52:20;;;;;;;16.50;14.70;;;;;;;-6.10;100.00;97484.34;5045451;28;20044;-60
2022/01/14 04:54:46;;;;;;;16.73;14.98;;;;;;;-6.07;100.00;97486.97;5041822;28;20025;-60
2022/01/14 04:57:11;;;;;;;16.85;14.23;;;;;;;-6.08;100.00;97498.06;5031360;28;20021;-60
2022/01/14 04:59:37;;;;;;;20.77;17.30;;;;;;;-6.06;100.00;97490.38;5039451;28;20111;-60
2022/01/14 05:02:03;;;;;;;17.50;15.18;;;;;;;-6.07;100.00;97492.09;5042222;28;20035;-60
2022/01/14 05:04:29;;;;;;;18.75;15.63;;;;;;;-6.11;100.00;97486.94;5042994;28;20399;-60
2022/01/14 05:07:00;;;;;;;18.10;14.55;;;;;;;-6.09;100.00;97488.63;5045963;28;20041;-61
2022/01/14 05:09:32;;;;;;;20.10;15.70;;;;;;;-6.09;100.00;97488.63;5043516;28;20029;-61
2022/01/14 05:12:05;;;;;;;16.75;13.68;;;;;;;-6.11;100.00;97492.06;5043496;28;20471;-61
2022/01/14 05:14:31;;;;;;;16.48;13.32;;;;;;;-6.14;100.00;97490.34;5038970;28;20084;-60
2022/01/14 05:16:56;;;;;;;15.90;13.30;;;;;;;-6.14;100.00;97481.81;5042375;28;20041;-61
2022/01/14 05:19:21;;;;;;;15.48;13.57;;;;;;;-6.10;100.00;97484.34;5038616;28;20469;-60
2022/01/14 05:21:47;;;;;;;17.05;14.35;;;;;;;-6.05;100.00;97490.38;5040826;28;20031;-61
2022/01/14 05:24:12;;;;;;;15.63;13.05;;;;;;;-6.11;100.00;97486.94;5048007;28;20033;-60
2022/01/14 05:26:38;;;;;;;14.35;12.35;;;;;;;-6.14;100.00;97485.22;5039294;28;20041;-60
2022/01/14 05:29:03;;;;;;;13.38;11.05;;;;;;;-6.15;100.00;97485.22;5041790;28;20457;-61
2022/01/14 05:31:45;;;;;;;14.00;10.70;;;;;;;-6.09;100.00;97487.78;5042923;28;20029;-60
2022/01/14 05:34:10;;;;;;;11.77;10.50;;;;;;;-6.06;100.00;97486.09;5033240;28;20030;-60
2022/01/14 05:36:36;;;;;;;14.93;11.90;;;;;;;-6.02;100.00;97475.84;5035713;28;20041;-60
2022/01/14 05:39:01;;;;;;;13.75;12.38;;;;;;;-6.03;100.00;97479.25;5041124;28;20036;-60
2022/01/14 05:41:27;;;;;;;12.73;11.48;;;;;;;-6.00;100.00;97469.81;5025145;28;20346;-60
2022/01/14 05:43:52;;;;;;;13.80;12.00;;;;;;;-5.98;100.00;97473.25;5038394;28;20105;-60
2022/01/14 05:46:17;;;;;;;15.07;12.07;;;;;;;-6.02;100.00;97475.84;5037541;28;20392;-60
2022/01/14 05:48:43;;;;;;;12.63;11.32;;;;;;;-6.02;100.00;97478.41;5041032;28;20016;-60
2022/01/14 05:51:08;;;;;;;12.55;11.35;;;;;;;-6.07;100.00;97491.22;5044281;28;20024;-60
2022/01/14 05:53:33;;;;;;;12.60;11.35;;;;;;;-6.08;100.00;97484.38;5043929;28;20480;-60
2022/01/14 05:55:59;;;;;;;13.05;11.77;;;;;;;-6.06;100.00;97480.97;5036837;28;20052;-60
2022/01/14 05:58:24;;;;;;;13.63;12.30;;;;;;;-6.06;100.00;97480.97;5046621;28;20025;-60
2022/01/14 06:00:49;;;;;;;16.67;12.82;;;;;;;-6.04;100.00;97491.22;5044082;28;20459;-60
2022/01/14 06:03:15;;;;;;;15.10;13.55;;;;;;;-6.08;100.00;97497.19;5041895;28;20029;-60
2022/01/14 06:05:40;;;;;;;16.15;13.75;;;;;;;-6.10;100.00;97497.19;5035472;28;20046;-61
2022/01/14 06:08:06;;;;;;;14.35;12.88;;;;;;;-6.15;100.00;97493.75;5042957;28;20025;-61
2022/01/14 06:10:31;;;;;;;15.63;13.98;;;;;;;-6.17;100.00;97494.63;5047505;28;20496;-60
2022/01/14 06:12:57;;;;;;;18.10;14.82;;;;;;;-6.19;100.00;97494.59;5038032;28;20030;-60
2022/01/14 06:15:22;;;;;;;18.73;12.70;;;;;;;-6.23;100.00;97500.56;5040343;28;20029;-60
2022/01/14 06:17:48;;;;;;;19.85;16.98;;;;;;;-6.24;100.00;97496.31;5041501;28;20109;-60
2022/01/14 06:20:13;;;;;;;21.98;19.60;;;;;;;-6.25;100.00;97500.56;5040437;28;20045;-60
2022/01/14 06:22:39;;;;;;;28.60;20.38;;;;;;;-6.23;100.00;97491.16;5040588;28;20469;-60
2022/01/14 06:25:06;;;;;;;22.98;18.55;;;;;;;-6.22;100.00;97486.91;5047506;28;20082;-60
2022/01/14 06:27:32;;;;;;;23.00;19.50;;;;;;;-6.22;100.00;97487.75;5044604;28;20075;-61
2022/01/14 06:30:03;;;;;;;24.33;21.02;;;;;;;-6.23;100.00;97487.75;5041587;28;20030;-61
2022/01/14 06:32:28;;;;;;;26.42;21.42;;;;;;;-6.24;100.00;97478.34;5040438;28;20033;-61
2022/01/14 06:34:54;;;;;;;23.77;20.40;;;;;;;-6.25;100.00;97474.09;5052044;28;20032;-61
2022/01/14 06:37:19;;;;;;;23.77;20.52;;;;;;;-6.25;100.00;97472.34;5047764;28;20112;-60
2022/01/14 06:39:44;;;;;;;22.23;19.23;;;;;;;-6.23;100.00;97468.09;5044831;28;20044;-60
2022/01/14 06:42:10;;;;;;;23.77;21.17;;;;;;;-6.21;100.00;97468.09;5037912;28;20033;-62
2022/01/14 06:44:35;;;;;;;21.50;17.77;;;;;;;-6.24;100.00;97468.94;5051014;28;20029;-61
2022/01/14 06:47:01;;;;;;;27.00;18.77;;;;;;;-6.28;100.00;97458.69;5042886;28;20076;-60
2022/01/14 06:49:27;;;;;;;17.83;15.55;;;;;;;-6.27;100.00;97460.41;5045346;28;20102;-61
2022/01/14 06:51:53;;;;;;;18.42;16.23;;;;;;;-6.24;100.00;97465.53;5048797;28;20503;-62
2022/01/14 06:54:19;;;;;;;17.48;15.15;;;;;;;-6.23;100.00;97467.25;5044175;28;20037;-61
2022/01/14 06:56:44;;;;;;;21.20;16.63;;;;;;;-6.24;100.00;97462.97;5045319;28;20404;-60
2022/01/14 06:59:09;;;;;;;20.05;17.45;;;;;;;-6.23;100.00;97469.81;5044545;28;20076;-61
2022/01/14 07:01:35;;;;;;;19.30;17.00;;;;;;;-6.23;100.00;97468.09;5047926;28;20055;-61
2022/01/14 07:04:00;;;;;;;17.52;15.50;;;;;;;-6.24;100.00;97468.94;5043563;28;20514;-60
2022/01/14 07:06:26;;;;;;;19.77;17.73;;;;;;;-6.23;100.00;97467.25;5045135;28;20083;-60
2022/01/14 07:08:51;;;;;;;24.58;19.10;;;;;;;-6.22;100.00;97463.81;5043411;28;20107;-60
2022/01/14 07:11:18;;;;;;;20.48;16.25;;;;;;;-6.23;100.00;97465.53;5049344;28;20036;-60
2022/01/14 07:13:43;;;;;;;16.23;14.10;;;;;;;-6.22;100.00;97466.41;5026982;28;20474;-60
2022/01/14 07:16:08;;;;;;;20.90;14.02;;;;;;;-6.22;100.00;97458.69;5046724;28;20042;-60
2022/01/14 07:18:34;;;;;;;14.98;13.23;;;;;;;-6.22;100.00;97459.53;5044464;28;20033;-60
2022/01/14 07:20:59;;;;;;;16.33;14.43;;;;;;;-6.20;100.00;97457.00;5044316;28;20021;-61
2022/01/14 07:23:25;;;;;;;17.40;14.10;;;;;;;-6.14;100.00;97463.84;5048791;28;20124;-60
2022/01/14 07:25:50;;;;;;;17.30;14.35;;;;;;;-6.12;100.00;97468.13;5045119;28;20022;-60
2022/01/14 07:28:15;;;;;;;15.80;14.07;;;;;;;-6.14;100.00;97467.25;5045719;28;20021;-60
2022/01/14 07:30:41;;;;;;;17.98;14.65;;;;;;;-6.13;100.00;97468.97;5042286;28;20129;-59
2022/01/14 07:33:06;;;;;;;19.65;15.55;;;;;;;-6.12;100.00;97472.41;5047907;28;20049;-60
2022/01/14 07:35:32;;;;;;;23.80;17.77;;;;;;;-6.11;100.00;97477.53;5042704;28;20028;-59
2022/01/14 07:37:57;;;;;;;25.42;17.77;;;;;;;-6.10;100.00;97484.34;5040514;28;20017;-60
2022/01/14 07:40:22;;;;;;;27.45;20.25;;;;;;;-6.08;100.00;97487.81;5026966;28;20029;-60
2022/01/14 07:42:48;;;;;;;30.35;19.67;;;;;;;-6.08;100.00;97489.50;5040529;28;20638;-64
2022/01/14 07:45:13;;;;;;;33.53;22.10;;;;;;;-6.06;100.00;97488.66;5040249;28;20500;-59
2022/01/14 07:47:39;;;;;;;28.02;20.83;;;;;;;-6.03;100.00;97492.94;5038243;28;20154;-58
2022/01/14 07:50:06;;;;;;;32.15;22.05;;;;;;;-6.02;100.00;97486.94;5040661;28;20032;-57
2022/01/14 07:52:31;;;;;;;28.08;20.48;;;;;;;-6.01;100.00;97490.38;5040629;28;20029;-59
2022/01/14 07:54:56;;;;;;;23.30;17.48;;;;;;;-6.00;100.00;97495.47;5043580;28;20026;-58
2022/01/14 07:57:22;;;;;;;42.60;30.20;;;;;;;-5.94;100.00;97495.50;5044006;28;20469;-59
2022/01/14 07:59:47;;;;;;;37.63;26.92;;;;;;;-5.90;100.00;97494.66;5040880;28;20051;-59
2022/01/14 08:02:13;;;;;;;35.15;20.08;;;;;;;-5.89;100.00;97490.34;5046595;28;20055;-59
2022/01/14 08:04:39;;;;;;;34.47;25.98;;;;;;;-5.89;100.00;97492.94;5046025;28;20064;-58
2022/01/14 08:07:11;;;;;;;38.63;28.42;;;;;;;-5.88;100.00;97484.38;5045649;28;20040;-58
2022/01/14 08:09:43;;;;;;;49.13;35.42;;;;;;;-5.86;100.00;97490.34;5046527;28;20031;-59
2022/01/14 08:12:12;;;;;;;32.15;23.02;;;;;;;-5.84;100.00;97482.69;5022819;28;20500;-59
2022/01/14 08:14:38;;;;;;;32.20;24.73;;;;;;;-5.83;100.00;97489.53;5049253;28;20433;-59
2022/01/14 08:17:04;;;;;;;56.78;36.47;;;;;;;-5.80;100.00;97485.25;5044167;28;20182;-58
2022/01/14 08:19:33;;;;;;;46.88;34.70;;;;;;;-5.79;100.00;97480.97;5043787;28;20040;-58
2022/01/14 08:22:01;;;;;;;38.90;29.63;;;;;;;-5.78;100.00;97487.81;5040525;28;20476;-59
2022/01/14 08:24:26;;;;;;;51.25;37.67;;;;;;;-5.69;100.00;97494.66;5037192;28;20025;-58
2022/01/14 08:26:52;;;;;;;51.13;36.10;;;;;;;-5.65;100.00;97488.69;5041165;28;20025;-58
2022/01/14 08:29:17;;;;;;;33.40;25.20;;;;;;;-5.65;100.00;97489.56;5041601;28;20048;-58
2022/01/14 08:31:42;;;;;;;31.02;25.98;;;;;;;-5.62;100.00;97494.69;5038563;28;20516;-58
2022/01/14 08:34:08;;;;;;;39.13;31.17;;;;;;;-5.61;100.00;97491.25;5043335;28;20025;-59
2022/01/14 08:36:33;;;;;;;39.75;30.98;;;;;;;-5.57;100.00;97502.41;5035514;28;20088;-58
2022/01/14 08:38:59;;;;;;;40.58;30.77;;;;;;;-5.52;100.00;97489.56;5047487;28;20210;-58
2022/01/14 08:41:29;;;;;;;36.05;27.85;;;;;;;-5.49;100.00;97484.44;5044338;28;20097;-58
2022/01/14 08:43:56;;;;;;;43.63;32.83;;;;;;;-5.49;100.00;97479.31;5044707;28;20022;-59
2022/01/14 08:46:22;;;;;;;54.60;38.58;;;;;;;-5.47;100.00;97487.84;5042023;28;20069;-56
2022/01/14 08:48:47;;;;;;;61.80;40.38;;;;;;;-5.44;100.00;97476.72;5040103;28;20025;-59
2022/01/14 08:51:12;;;;;;;59.13;41.63;;;;;;;-5.44;100.00;97471.59;5034336;28;20021;-58
2022/01/14 08:53:38;;;;;;;90.22;52.53;;;;;;;-5.38;100.00;97481.88;5041241;28;20123;-59
2022/01/14 08:56:04;;;;;;;81.07;45.08;;;;;;;-5.34;100.00;97481.00;5040386;28;20029;-59
2022/01/14 08:58:29;;;;;;;78.70;44.20;;;;;;;-5.33;100.00;97475.84;5040720;28;20028;-59
2022/01/14 09:00:54;;;;;;;73.20;42.28;;;;;;;-5.34;100.00;97476.72;5042247;28;20024;-59
2022/01/14 09:03:20;;;;;;;76.65;45.97;;;;;;;-5.32;100.00;97476.72;5040092;28;20056;-58
2022/01/14 09:05:45;;;;;;;73.65;42.58;;;;;;;-5.33;100.00;97470.72;5046449;28;20017;-58
2022/01/14 09:08:11;;;;;;;60.58;38.55;;;;;;;-5.29;100.00;97481.84;5043209;28;20065;-58
2022/01/14 09:10:36;;;;;;;45.50;30.63;;;;;;;-5.27;100.00;97479.31;5043110;28;20033;-57
2022/01/14 09:13:02;;;;;;;40.17;29.08;;;;;;;-5.25;100.00;97475.84;5041287;28;20026;-57
2022/01/14 09:15:27;;;;;;;70.78;38.58;;;;;;;-5.18;100.00;97467.31;5048859;28;20021;-59
2022/01/14 09:17:53;;;;;;;98.22;42.63;;;;;;;-5.12;100.00;97468.16;5041251;28;20549;-59
2022/01/14 09:20:18;;;;;;;93.45;43.75;;;;;;;-5.07;100.00;97467.28;5042070;28;20029;-59
2022/01/14 09:22:48;;;;;;;224.23;78.30;;;;;;;-5.01;100.00;97458.69;5045002;28;20115;-59
2022/01/14 09:25:17;;;;;;;120.25;51.17;;;;;;;-4.96;100.00;97467.28;5043761;28;20492;-59
2022/01/14 09:27:42;;;;;;;80.05;41.85;;;;;;;-4.97;100.00;97465.56;5042863;28;20108;-58
2022/01/14 09:30:08;;;;;;;62.35;33.28;;;;;;;-4.76;100.00;97464.63;5039266;28;20028;-58
2022/01/14 09:32:34;;;;;;;80.72;41.40;;;;;;;-4.09;100.00;97468.66;5043305;28;20400;-58
2022/01/14 09:35:03;;;;;;;138.75;73.70;;;;;;;-3.47;100.00;97471.66;5045441;28;20029;-59
2022/01/14 09:37:29;;;;;;;88.72;45.25;;;;;;;-2.96;100.00;97465.22;5038699;28;20029;-58
2022/01/14 09:39:55;;;;;;;124.68;54.88;;;;;;;-2.43;100.00;97467.22;5043830;28;20037;-60
2022/01/14 09:42:20;;;;;;;57.25;32.30;;;;;;;-1.93;99.42;97458.84;5044567;28;20742;-58
2022/01/14 09:44:46;;;;;;;45.47;26.63;;;;;;;-1.56;96.83;97467.78;5017884;28;20024;-58
2022/01/14 09:47:19;;;;;;;35.30;24.20;;;;;;;-1.30;95.87;97467.38;5040981;28;20108;-59
2022/01/14 09:49:45;;;;;;;43.45;26.02;;;;;;;-1.10;95.26;97467.06;5042854;28;20094;-59
2022/01/14 09:52:12;;;;;;;48.50;27.52;;;;;;;-0.94;94.18;97469.34;5039495;28;20109;-59
2022/01/14 09:54:39;;;;;;;81.22;36.63;;;;;;;-0.89;95.68;97465.81;5041069;28;20078;-59
2022/01/14 09:57:05;;;;;;;55.67;27.55;;;;;;;-0.93;94.21;97464.16;5045076;28;20116;-58
2022/01/14 09:59:30;;;;;;;44.33;25.88;;;;;;;-0.80;95.45;97461.34;5043964;28;20187;-59
2022/01/14 10:01:57;;;;;;;33.38;22.45;;;;;;;-0.59;96.16;97453.16;5044848;28;20571;-59
2022/01/14 10:04:22;;;;;;;29.50;20.75;;;;;;;-0.38;94.10;97456.22;5044798;28;20064;-59
2022/01/14 10:06:55;;;;;;;27.48;20.88;;;;;;;-0.20;95.06;97451.56;5046404;28;20055;-59
2022/01/14 10:09:29;;;;;;;89.97;39.22;;;;;;;0.13;95.07;97446.53;5047760;28;20021;-59
2022/01/14 10:12:20;;;;;;;45.35;29.33;;;;;;;0.27;93.07;97436.69;5040206;28;20056;-59
2022/01/14 10:15:00;;;;;;;45.67;30.27;;;;;;;0.46;91.94;97423.31;5046753;28;20100;-59
2022/01/14 10:17:36;;;;;;;25.92;23.13;;;;;;;0.56;93.66;97435.19;5047748;28;20075;-59
2022/01/14 10:20:03;;;;;;;18.05;16.15;;;;;;;0.70;91.63;97429.66;5039314;28;20024;-59
2022/01/14 10:22:31;;;;;;;25.20;17.88;;;;;;;0.88;93.88;97429.22;5043798;28;20121;-58
2022/01/14 10:25:06;;;;;;;16.27;14.32;;;;;;;0.88;91.43;97424.03;5046610;28;20032;-60
2022/01/14 10:27:36;;;;;;;26.45;20.75;;;;;;;1.06;91.06;97422.69;5037718;28;20025;-59
2022/01/14 10:30:33;;;;;;;15.25;12.50;;;;;;;1.14;88.70;97425.94;5039119;28;20034;-59
2022/01/14 10:33:07;;;;;;;23.35;15.25;;;;;;;1.24;89.11;97410.97;5048605;28;20029;-59
2022/01/14 10:35:41;;;;;;;17.73;13.82;;;;;;;1.43;92.20;97411.31;5050044;28;20053;-58
2022/01/14 10:38:10;;;;;;;14.67;10.27;;;;;;;1.54;90.80;97409.25;5050139;28;20460;-57
2022/01/14 10:40:41;;;;;;;11.20;9.15;;;;;;;1.68;89.10;97403.69;5046349;28;20655;-60
2022/01/14 10:43:09;;;;;;;9.68;8.60;;;;;;;1.72;87.02;97401.81;5049603;28;20079;-59
2022/01/14 10:45:35;;;;;;;10.45;9.48;;;;;;;1.97;85.04;97398.50;5044926;28;20087;-59
2022/01/14 10:48:06;;;;;;;11.68;9.52;;;;;;;2.16;84.70;97401.38;5046270;28;20029;-60
2022/01/14 10:50:39;;;;;;;8.52;7.72;;;;;;;2.27;83.17;97394.09;5039904;28;20045;-59
2022/01/14 10:53:30;;;;;;;30.60;17.58;;;;;;;2.33;85.80;97395.66;5037107;28;20029;-59
2022/01/14 10:56:04;;;;;;;24.90;15.93;;;;;;;2.19;85.93;97390.91;5045373;28;20417;-59
2022/01/14 10:58:33;;;;;;;9.10;8.30;;;;;;;2.28;86.17;97390.59;5043293;28;20389;-59
2022/01/14 11:01:12;;;;;;;12.75;10.07;;;;;;;2.32;83.90;97380.09;5046037;28;20439;-59
2022/01/14 11:03:38;;;;;;;12.07;10.98;;;;;;;2.36;82.27;97382.56;5045260;28;20021;-59
2022/01/14 11:06:17;;;;;;;13.93;9.55;;;;;;;2.69;84.00;97384.09;5037169;28;20037;-59
2022/01/14 11:08:45;;;;;;;30.05;27.10;;;;;;;2.78;80.26;97378.59;5021814;28;20033;-59
2022/01/14 11:11:11;;;;;;;15.05;13.60;;;;;;;2.96;80.31;97374.50;5043759;28;20083;-59
2022/01/14 11:13:37;;;;;;;7.65;7.00;;;;;;;3.21;79.08;97370.19;5042078;28;20079;-59
2022/01/14 11:16:03;;;;;;;10.50;8.80;;;;;;;3.12;78.86;97367.00;5053086;28;20040;-59
2022/01/14 11:18:28;;;;;;;28.70;22.80;;;;;;;3.19;77.05;97356.38;5041848;28;20044;-59
2022/01/14 11:23:37;;;;;;;9.05;8.23;;;;;;;3.26;76.92;97350.06;5047605;28;20071;-59
2022/01/14 11:26:06;;;;;;;11.23;8.70;;;;;;;3.08;77.46;97348.94;5044503;28;20029;-59
2022/01/14 11:28:36;;;;;;;10.75;9.50;;;;;;;2.89;78.87;97343.53;5045259;28;20079;-59
2022/01/14 11:31:25;;;;;;;9.18;8.27;;;;;;;3.19;77.94;97343.34;5042077;28;20037;-59
2022/01/14 11:33:50;;;;;;;12.05;10.85;;;;;;;3.34;76.43;97329.78;5046500;28;20040;-59
2022/01/14 11:36:16;;;;;;;8.52;7.82;;;;;;;3.38;74.95;97326.16;5043637;28;20187;-59
2022/01/14 11:38:43;;;;;;;8.57;7.78;;;;;;;3.68;74.84;97325.06;5045311;28;20064;-59